createdAt,value
2018-05-21T00:00:01.586Z,6.60
2018-05-21T00:01:08.390Z,7.00
2018-05-21T00:02:15.092Z,7.60
2018-05-21T00:03:21.842Z,6.90
2018-05-21T00:04:28.969Z,7.50
2018-05-21T00:05:35.691Z,7.00
2018-05-21T00:06:42.510Z,6.80
2018-05-21T00:07:49.289Z,7.40
2018-05-21T00:08:56.055Z,7.00
2018-05-21T00:10:02.789Z,7.00
2018-05-21T00:11:09.523Z,7.50
2018-05-21T00:12:16.287Z,6.80
2018-05-21T00:13:22.994Z,7.30
2018-05-21T00:14:29.690Z,7.70
2018-05-21T00:15:36.418Z,7.50
2018-05-21T00:16:43.144Z,8.60
2018-05-21T00:17:49.871Z,7.90
2018-05-21T00:18:56.633Z,7.50
2018-05-21T00:20:03.386Z,7.10
2018-05-21T00:21:10.139Z,7.80
2018-05-21T00:22:16.834Z,8.00
2018-05-21T00:23:23.566Z,7.80
2018-05-21T00:24:30.333Z,8.10
2018-05-21T00:25:37.035Z,7.90
2018-05-21T00:26:43.811Z,7.90
2018-05-21T00:27:50.547Z,7.20
2018-05-21T00:28:57.241Z,7.30
2018-05-21T00:30:04.050Z,7.30
2018-05-21T00:31:10.751Z,7.50
2018-05-21T00:32:17.482Z,7.70
2018-05-21T00:33:24.540Z,7.40
2018-05-21T00:34:31.243Z,7.70
2018-05-21T00:35:37.930Z,7.40
2018-05-21T00:36:44.652Z,8.20
2018-05-21T00:37:51.371Z,7.40
2018-05-21T00:38:58.134Z,7.10
2018-05-21T00:40:04.843Z,7.70
2018-05-21T00:41:11.543Z,7.70
2018-05-21T00:42:18.242Z,7.30
2018-05-21T00:43:24.968Z,8.00
2018-05-21T00:44:31.670Z,8.00
2018-05-21T00:45:38.480Z,7.00
2018-05-21T00:46:45.167Z,7.50
2018-05-21T00:47:51.889Z,7.50
2018-05-21T00:48:58.713Z,8.20
2018-05-21T00:50:05.634Z,7.40
2018-05-21T00:51:12.337Z,7.40
2018-05-21T00:52:19.068Z,7.80
2018-05-21T00:53:25.783Z,7.40
2018-05-21T00:54:32.492Z,7.70
2018-05-21T00:55:39.310Z,7.50
2018-05-21T00:56:46.031Z,7.20
2018-05-21T00:57:52.739Z,8.30
2018-05-21T00:58:59.463Z,8.20
2018-05-21T01:00:06.178Z,7.70
2018-05-21T01:01:13.026Z,8.70
2018-05-21T01:02:19.719Z,7.60
2018-05-21T01:03:26.444Z,8.20
2018-05-21T01:04:33.147Z,8.10
2018-05-21T01:05:39.874Z,7.90
2018-05-21T01:06:46.870Z,7.90
2018-05-21T01:07:53.588Z,8.20
2018-05-21T01:09:00.358Z,7.00
2018-05-21T01:10:07.019Z,7.80
2018-05-21T01:11:13.829Z,8.00
2018-05-21T01:12:20.527Z,7.80
2018-05-21T01:13:27.238Z,8.30
2018-05-21T01:14:33.958Z,7.80
2018-05-21T01:15:40.754Z,7.80
2018-05-21T01:16:47.384Z,7.90
2018-05-21T01:17:54.194Z,7.10
2018-05-21T01:19:00.934Z,7.30
2018-05-21T01:20:07.674Z,9.00
2018-05-21T01:21:14.410Z,8.40
2018-05-21T01:22:21.106Z,9.00
2018-05-21T01:23:27.815Z,8.30
2018-05-21T01:24:34.575Z,8.00
2018-05-21T01:25:41.296Z,8.40
2018-05-21T01:26:48.015Z,8.10
2018-05-21T01:27:54.742Z,7.90
2018-05-21T01:29:01.613Z,8.30
2018-05-21T01:30:08.382Z,7.90
2018-05-21T01:31:15.154Z,7.80
2018-05-21T01:32:21.879Z,8.10
2018-05-21T01:33:28.611Z,8.10
2018-05-21T01:34:35.426Z,8.20
2018-05-21T01:35:42.167Z,8.30
2018-05-21T01:36:48.918Z,8.00
2018-05-21T01:37:55.636Z,8.00
2018-05-21T01:39:02.688Z,8.10
2018-05-21T01:40:09.522Z,8.10
2018-05-21T01:41:16.350Z,8.00
2018-05-21T01:42:23.067Z,7.70
2018-05-21T01:43:29.827Z,8.00
2018-05-21T01:44:36.545Z,8.30
2018-05-21T01:45:43.282Z,7.80
2018-05-21T01:46:50.092Z,8.40
2018-05-21T01:47:56.810Z,7.90
2018-05-21T01:49:03.546Z,7.60
2018-05-21T01:50:10.278Z,8.00
2018-05-21T01:51:17.007Z,7.80
2018-05-21T01:52:23.840Z,7.80
2018-05-21T01:53:30.588Z,7.50
2018-05-21T01:54:37.339Z,8.30
2018-05-21T01:55:44.067Z,7.90
2018-05-21T01:56:50.792Z,8.80
2018-05-21T01:57:57.579Z,8.40
2018-05-21T01:59:04.298Z,8.20
2018-05-21T02:00:11.092Z,8.70
2018-05-21T02:01:17.839Z,7.80
2018-05-21T02:02:24.551Z,8.20
2018-05-21T02:03:31.370Z,7.90
2018-05-21T02:04:38.087Z,8.40
2018-05-21T02:05:44.814Z,7.80
2018-05-21T02:06:51.538Z,7.80
2018-05-21T02:07:58.610Z,7.80
2018-05-21T02:09:05.379Z,7.30
2018-05-21T02:10:12.106Z,7.50
2018-05-21T02:11:18.981Z,7.90
2018-05-21T02:12:25.652Z,7.00
2018-05-21T02:13:32.419Z,7.50
2018-05-21T02:14:39.162Z,7.50
2018-05-21T02:15:45.867Z,6.70
2018-05-21T02:16:52.662Z,6.80
2018-05-21T02:17:59.382Z,6.80
2018-05-21T02:19:06.128Z,6.60
2018-05-21T02:20:12.858Z,6.40
2018-05-21T02:21:19.606Z,6.70
2018-05-21T02:22:26.452Z,6.00
2018-05-21T02:23:33.315Z,6.50
2018-05-21T02:24:40.038Z,5.90
2018-05-21T02:25:46.922Z,7.10
2018-05-21T02:26:53.671Z,6.10
2018-05-21T02:28:00.398Z,7.30
2018-05-21T02:29:07.227Z,7.00
2018-05-21T02:30:13.971Z,7.20
2018-05-21T02:31:20.694Z,7.20
2018-05-21T02:32:27.499Z,8.60
2018-05-21T02:33:34.222Z,7.50
2018-05-21T02:34:41.046Z,7.60
2018-05-21T02:35:47.761Z,6.60
2018-05-21T02:36:54.507Z,6.70
2018-05-21T02:38:01.242Z,6.50
2018-05-21T02:39:08.027Z,6.70
2018-05-21T02:40:14.791Z,7.20
2018-05-21T02:41:21.563Z,6.30
2018-05-21T02:42:28.322Z,6.30
2018-05-21T02:43:35.067Z,6.60
2018-05-21T02:44:41.914Z,6.20
2018-05-21T02:45:48.663Z,6.30
2018-05-21T02:46:55.495Z,6.50
2018-05-21T02:48:02.236Z,6.40
2018-05-21T02:49:09.049Z,6.20
2018-05-21T02:50:15.790Z,6.00
2018-05-21T02:51:22.530Z,6.30
2018-05-21T02:52:29.271Z,6.00
2018-05-21T02:53:35.986Z,6.40
2018-05-21T02:54:42.770Z,6.40
2018-05-21T02:55:49.479Z,6.20
2018-05-21T02:56:56.210Z,6.50
2018-05-21T02:58:02.955Z,6.30
2018-05-21T02:59:09.723Z,5.90
2018-05-21T03:00:16.562Z,6.00
2018-05-21T03:01:23.342Z,6.50
2018-05-21T03:02:30.052Z,6.60
2018-05-21T03:03:36.816Z,6.20
2018-05-21T03:04:43.514Z,6.10
2018-05-21T03:05:50.311Z,6.50
2018-05-21T03:06:57.030Z,6.90
2018-05-21T03:08:03.774Z,6.80
2018-05-21T03:09:10.555Z,6.40
2018-05-21T03:10:17.410Z,5.50
2018-05-21T03:11:24.370Z,5.70
2018-05-21T03:12:30.885Z,5.50
2018-05-21T03:13:37.608Z,5.60
2018-05-21T03:14:44.325Z,5.30
2018-05-21T03:15:51.150Z,6.00
2018-05-21T03:16:57.858Z,5.40
2018-05-21T03:18:04.590Z,5.60
2018-05-21T03:19:11.343Z,6.00
2018-05-21T03:20:18.083Z,6.10
2018-05-21T03:21:24.908Z,5.40
2018-05-21T03:22:31.606Z,5.50
2018-05-21T03:23:38.333Z,5.50
2018-05-21T03:24:45.051Z,5.20
2018-05-21T03:25:51.774Z,5.80
2018-05-21T03:26:58.495Z,5.80
2018-05-21T03:28:05.326Z,5.20
2018-05-21T03:29:12.101Z,5.40
2018-05-21T03:30:18.824Z,4.80
2018-05-21T03:31:25.551Z,5.50
2018-05-21T03:32:32.410Z,5.20
2018-05-21T03:33:39.156Z,5.20
2018-05-21T03:34:45.914Z,5.70
2018-05-21T03:35:52.641Z,5.40
2018-05-21T03:36:59.330Z,5.10
2018-05-21T03:38:06.159Z,5.30
2018-05-21T03:39:12.911Z,5.90
2018-05-21T03:40:19.652Z,5.70
2018-05-21T03:41:26.378Z,6.40
2018-05-21T03:42:33.254Z,5.70
2018-05-21T03:43:39.954Z,5.80
2018-05-21T03:44:46.682Z,6.30
2018-05-21T03:45:53.503Z,6.00
2018-05-21T03:47:00.206Z,5.80
2018-05-21T03:48:06.990Z,5.50
2018-05-21T03:49:13.762Z,5.80
2018-05-21T03:50:20.490Z,5.90
2018-05-21T03:51:27.239Z,6.10
2018-05-21T03:52:33.990Z,6.20
2018-05-21T03:53:40.748Z,5.40
2018-05-21T03:54:47.466Z,5.40
2018-05-21T03:55:54.195Z,5.20
2018-05-21T03:57:00.965Z,5.50
2018-05-21T03:58:07.666Z,5.50
2018-05-21T03:59:14.518Z,5.00
2018-05-21T04:00:21.346Z,4.90
2018-05-21T04:01:28.314Z,5.20
2018-05-21T04:02:35.162Z,5.30
2018-05-21T04:03:41.890Z,5.20
2018-05-21T04:04:48.774Z,5.10
2018-05-21T04:05:55.510Z,5.00
2018-05-21T04:07:02.262Z,5.20
2018-05-21T04:08:08.987Z,4.80
2018-05-21T04:09:15.735Z,4.60
2018-05-21T04:10:22.519Z,4.40
2018-05-21T04:11:29.215Z,4.70
2018-05-21T04:12:35.935Z,4.60
2018-05-21T04:13:42.650Z,4.90
2018-05-21T04:14:49.411Z,4.60
2018-05-21T04:15:56.286Z,4.60
2018-05-21T04:17:02.985Z,4.40
2018-05-21T04:18:09.771Z,5.00
2018-05-21T04:19:16.510Z,4.60
2018-05-21T04:20:23.222Z,4.70
2018-05-21T04:21:30.053Z,4.70
2018-05-21T04:22:36.766Z,5.00
2018-05-21T04:23:43.498Z,4.90
2018-05-21T04:24:50.221Z,4.50
2018-05-21T04:25:56.943Z,4.20
2018-05-21T04:27:03.626Z,4.30
2018-05-21T04:28:10.591Z,4.40
2018-05-21T04:29:17.332Z,4.20
2018-05-21T04:30:24.070Z,4.20
2018-05-21T04:31:30.757Z,4.80
2018-05-21T04:32:37.434Z,4.70
2018-05-21T04:33:44.210Z,4.20
2018-05-21T04:34:50.918Z,4.70
2018-05-21T04:35:57.619Z,4.20
2018-05-21T04:37:04.331Z,4.90
2018-05-21T04:38:11.037Z,4.30
2018-05-21T04:39:17.837Z,4.50
2018-05-21T04:40:24.620Z,4.60
2018-05-21T04:41:31.372Z,4.10
2018-05-21T04:42:38.113Z,4.00
2018-05-21T04:43:44.818Z,4.20
2018-05-21T04:44:51.539Z,3.90
2018-05-21T04:45:58.242Z,4.50
2018-05-21T04:47:05.031Z,4.60
2018-05-21T04:48:11.742Z,3.70
2018-05-21T04:49:18.466Z,4.50
2018-05-21T04:50:25.175Z,3.80
2018-05-21T04:51:31.874Z,4.10
2018-05-21T04:52:38.578Z,4.10
2018-05-21T04:53:45.693Z,3.90
2018-05-21T04:54:52.382Z,4.30
2018-05-21T04:55:59.072Z,4.00
2018-05-21T04:57:06.018Z,4.10
2018-05-21T04:58:12.734Z,3.60
2018-05-21T04:59:19.458Z,4.20
2018-05-21T05:00:26.179Z,3.50
2018-05-21T05:01:32.887Z,4.00
2018-05-21T05:02:39.678Z,3.90
2018-05-21T05:03:46.399Z,3.90
2018-05-21T05:04:53.138Z,4.00
2018-05-21T05:05:59.875Z,3.90
2018-05-21T05:07:06.586Z,3.80
2018-05-21T05:08:13.430Z,3.70
2018-05-21T05:09:20.138Z,4.30
2018-05-21T05:10:26.910Z,4.50
2018-05-21T05:11:33.606Z,4.20
2018-05-21T05:12:40.326Z,4.30
2018-05-21T05:13:47.051Z,3.70
2018-05-21T05:14:54.271Z,3.70
2018-05-21T05:16:00.778Z,4.30
2018-05-21T05:17:07.521Z,4.60
2018-05-21T05:18:14.319Z,3.80
2018-05-21T05:19:21.063Z,3.90
2018-05-21T05:20:27.816Z,4.20
2018-05-21T05:21:34.562Z,4.20
2018-05-21T05:22:41.423Z,3.90
2018-05-21T05:23:48.127Z,4.00
2018-05-21T05:24:54.935Z,3.90
2018-05-21T05:26:01.721Z,3.70
2018-05-21T05:27:08.532Z,3.70
2018-05-21T05:28:15.307Z,3.70
2018-05-21T05:29:22.047Z,4.30
2018-05-21T05:30:28.810Z,3.70
2018-05-21T05:31:35.594Z,3.80
2018-05-21T05:32:42.378Z,3.70
2018-05-21T05:33:49.354Z,3.70
2018-05-21T05:34:56.335Z,4.10
2018-05-21T05:36:03.256Z,3.80
2018-05-21T05:37:10.008Z,4.20
2018-05-21T05:38:16.793Z,3.70
2018-05-21T05:39:23.629Z,4.60
2018-05-21T05:40:30.382Z,4.00
2018-05-21T05:41:37.180Z,4.00
2018-05-21T05:42:43.926Z,4.00
2018-05-21T05:43:50.754Z,3.90
2018-05-21T05:44:57.543Z,3.80
2018-05-21T05:46:04.300Z,4.10
2018-05-21T05:47:11.320Z,3.90
2018-05-21T05:48:18.105Z,3.90
2018-05-21T05:49:24.959Z,4.30
2018-05-21T05:50:31.765Z,5.00
2018-05-21T05:51:38.520Z,4.20
2018-05-21T05:52:45.242Z,4.70
2018-05-21T05:53:52.058Z,4.80
2018-05-21T05:54:58.774Z,6.00
2018-05-21T05:56:05.515Z,4.80
2018-05-21T05:57:12.256Z,7.60
2018-05-21T05:58:18.959Z,6.60
2018-05-21T05:59:25.659Z,6.80
2018-05-21T06:00:32.479Z,6.50
2018-05-21T06:01:39.179Z,5.20
2018-05-21T06:02:45.905Z,4.20
2018-05-21T06:03:52.661Z,4.10
2018-05-21T06:04:59.387Z,3.90
2018-05-21T06:06:06.190Z,3.90
2018-05-21T06:07:12.886Z,4.60
2018-05-21T06:08:19.618Z,4.40
2018-05-21T06:09:26.346Z,4.00
2018-05-21T06:10:33.082Z,3.90
2018-05-21T06:11:39.783Z,3.80
2018-05-21T06:12:46.569Z,4.00
2018-05-21T06:13:53.267Z,4.20
2018-05-21T06:15:00.265Z,4.20
2018-05-21T06:16:07.000Z,4.40
2018-05-21T06:17:13.746Z,4.30
2018-05-21T06:18:20.476Z,4.30
2018-05-21T06:19:27.228Z,4.20
2018-05-21T06:20:33.975Z,4.30
2018-05-21T06:21:40.752Z,4.30
2018-05-21T06:22:47.470Z,4.20
2018-05-21T06:23:54.208Z,4.20
2018-05-21T06:25:00.978Z,4.00
2018-05-21T06:26:07.815Z,3.80
2018-05-21T06:27:19.626Z,3.70
2018-05-21T06:28:21.381Z,3.70
2018-05-21T06:29:28.130Z,4.20
2018-05-21T06:30:34.989Z,4.50
2018-05-21T06:31:41.830Z,4.10
2018-05-21T06:32:48.667Z,3.90
2018-05-21T06:33:55.553Z,3.90
2018-05-21T06:35:02.498Z,3.40
2018-05-21T06:36:09.224Z,3.60
2018-05-21T06:37:16.069Z,4.80
2018-05-21T06:38:22.963Z,6.70
2018-05-21T06:39:30.242Z,6.20
2018-05-21T06:40:36.418Z,7.40
2018-05-21T06:41:43.197Z,6.50
2018-05-21T06:42:50.080Z,4.00
2018-05-21T06:43:56.819Z,4.30
2018-05-21T06:45:03.608Z,4.50
2018-05-21T06:46:10.448Z,3.90
2018-05-21T06:47:17.348Z,4.00
2018-05-21T06:48:24.193Z,4.60
2018-05-21T06:49:30.910Z,3.90
2018-05-21T06:50:37.683Z,3.70
2018-05-21T06:51:44.690Z,4.70
2018-05-21T06:52:51.819Z,4.10
2018-05-21T06:53:58.510Z,4.20
2018-05-21T06:55:05.254Z,4.80
2018-05-21T06:56:12.031Z,4.10
2018-05-21T06:57:18.891Z,4.70
2018-05-21T06:58:25.667Z,4.40
2018-05-21T06:59:32.570Z,4.00
2018-05-21T07:00:39.547Z,4.50
2018-05-21T07:01:46.510Z,4.40
2018-05-21T07:02:53.263Z,4.20
2018-05-21T07:04:00.082Z,4.50
2018-05-21T07:05:07.079Z,4.30
2018-05-21T07:06:13.898Z,4.20
2018-05-21T07:07:20.727Z,4.20
2018-05-21T07:08:27.445Z,4.20
2018-05-21T07:09:34.462Z,4.50
2018-05-21T07:10:41.306Z,4.30
2018-05-21T07:11:48.034Z,4.40
2018-05-21T07:12:54.750Z,4.10
2018-05-21T07:14:01.465Z,4.30
2018-05-21T07:15:08.290Z,4.40
2018-05-21T07:16:14.995Z,4.50
2018-05-21T07:17:21.731Z,4.50
2018-05-21T07:18:28.457Z,4.50
2018-05-21T07:19:35.190Z,4.20
2018-05-21T07:20:41.910Z,4.90
2018-05-21T07:21:48.699Z,4.90
2018-05-21T07:22:55.422Z,4.60
2018-05-21T07:24:02.183Z,4.80
2018-05-21T07:25:08.961Z,4.50
2018-05-21T07:26:15.785Z,4.50
2018-05-21T07:27:22.577Z,4.50
2018-05-21T07:28:29.346Z,4.60
2018-05-21T07:29:36.090Z,4.30
2018-05-21T07:30:42.911Z,5.30
2018-05-21T07:31:49.659Z,4.70
2018-05-21T07:32:56.407Z,3.90
2018-05-21T07:34:03.158Z,4.60
2018-05-21T07:35:10.031Z,4.80
2018-05-21T07:36:16.823Z,4.90
2018-05-21T07:37:23.579Z,4.80
2018-05-21T07:38:31.816Z,5.20
2018-05-21T07:39:37.143Z,4.50
2018-05-21T07:40:44.039Z,4.70
2018-05-21T07:41:50.907Z,5.00
2018-05-21T07:42:57.639Z,4.70
2018-05-21T07:44:04.394Z,5.20
2018-05-21T07:45:11.115Z,4.90
2018-05-21T07:46:17.991Z,5.10
2018-05-21T07:47:24.723Z,4.90
2018-05-21T07:48:31.464Z,5.20
2018-05-21T07:49:38.228Z,5.40
2018-05-21T07:50:45.065Z,5.60
2018-05-21T07:51:51.797Z,5.60
2018-05-21T07:52:58.608Z,5.20
2018-05-21T07:54:05.363Z,5.40
2018-05-21T07:55:12.134Z,5.10
2018-05-21T07:56:19.048Z,5.20
2018-05-21T07:57:25.799Z,4.80
2018-05-21T07:58:32.598Z,5.50
2018-05-21T07:59:39.603Z,5.30
2018-05-21T08:00:46.412Z,5.40
2018-05-21T08:01:53.180Z,5.70
2018-05-21T08:02:59.971Z,5.60
2018-05-21T08:04:06.830Z,6.60
2018-05-21T08:05:13.636Z,5.00
2018-05-21T08:06:20.417Z,5.10
2018-05-21T08:07:27.383Z,5.80
2018-05-21T08:08:34.428Z,5.60
2018-05-21T08:09:41.290Z,5.60
2018-05-21T08:10:48.333Z,6.20
2018-05-21T08:11:55.129Z,6.10
2018-05-21T08:13:01.970Z,5.70
2018-05-21T08:14:08.747Z,5.80
2018-05-21T08:15:15.546Z,5.50
2018-05-21T08:16:22.295Z,5.40
2018-05-21T08:17:29.059Z,5.70
2018-05-21T08:18:35.816Z,5.60
2018-05-21T08:19:42.579Z,6.00
2018-05-21T08:20:49.330Z,6.00
2018-05-21T08:21:56.127Z,6.00
2018-05-21T08:23:02.847Z,6.00
2018-05-21T08:24:09.699Z,6.30
2018-05-21T08:25:16.462Z,5.60
2018-05-21T08:26:23.222Z,5.50
2018-05-21T08:27:29.980Z,6.20
2018-05-21T08:28:36.741Z,6.20
2018-05-21T08:29:43.671Z,6.10
2018-05-21T08:30:50.493Z,6.20
2018-05-21T08:31:57.296Z,5.90
2018-05-21T08:33:04.163Z,6.30
2018-05-21T08:34:10.899Z,6.10
2018-05-21T08:35:17.626Z,5.50
2018-05-21T08:36:24.469Z,6.50
2018-05-21T08:37:31.199Z,6.00
2018-05-21T08:38:37.934Z,6.60
2018-05-21T08:39:44.679Z,6.10
2018-05-21T08:40:51.525Z,5.80
2018-05-21T08:41:58.270Z,5.30
2018-05-21T08:43:05.044Z,6.60
2018-05-21T08:44:11.759Z,6.30
2018-05-21T08:45:18.576Z,7.20
2018-05-21T08:46:25.327Z,6.40
2018-05-21T08:47:32.089Z,6.30
2018-05-21T08:48:38.863Z,6.30
2018-05-21T08:49:45.638Z,6.20
2018-05-21T08:50:52.422Z,6.60
2018-05-21T08:51:59.178Z,6.40
2018-05-21T08:53:05.900Z,6.00
2018-05-21T08:54:12.717Z,6.90
2018-05-21T08:55:19.506Z,6.40
2018-05-21T08:56:26.307Z,6.10
2018-05-21T08:57:33.002Z,6.20
2018-05-21T08:58:39.775Z,6.40
2018-05-21T08:59:46.532Z,6.30
2018-05-21T09:00:53.326Z,6.20
2018-05-21T09:02:00.194Z,7.00
2018-05-21T09:03:06.936Z,6.50
2018-05-21T09:04:13.721Z,6.30
2018-05-21T09:05:20.489Z,6.90
2018-05-21T09:06:27.270Z,6.00
2018-05-21T09:07:34.154Z,7.10
2018-05-21T09:08:40.879Z,6.80
2018-05-21T09:09:47.676Z,6.40
2018-05-21T09:10:54.459Z,6.60
2018-05-21T09:12:01.224Z,6.80
2018-05-21T09:13:07.971Z,6.90
2018-05-21T09:14:14.742Z,6.70
2018-05-21T09:15:21.494Z,6.40
2018-05-21T09:16:28.298Z,6.80
2018-05-21T09:17:35.056Z,6.80
2018-05-21T09:18:41.799Z,7.70
2018-05-21T09:19:48.537Z,7.20
2018-05-21T09:20:55.322Z,7.80
2018-05-21T09:22:02.072Z,6.50
2018-05-21T09:23:09.119Z,6.30
2018-05-21T09:24:15.547Z,6.90
2018-05-21T09:25:22.344Z,7.80
2018-05-21T09:26:29.098Z,6.50
2018-05-21T09:27:35.916Z,7.70
2018-05-21T09:28:42.666Z,7.20
2018-05-21T09:29:49.414Z,7.10
2018-05-21T09:30:56.171Z,7.40
2018-05-21T09:32:02.974Z,7.00
2018-05-21T09:33:09.736Z,7.10
2018-05-21T09:34:16.517Z,6.90
2018-05-21T09:35:23.345Z,7.30
2018-05-21T09:36:30.215Z,7.30
2018-05-21T09:37:36.951Z,6.70
2018-05-21T09:38:43.766Z,7.70
2018-05-21T09:39:50.554Z,7.40
2018-05-21T09:40:57.345Z,7.50
2018-05-21T09:42:04.217Z,7.70
2018-05-21T09:43:10.966Z,7.50
2018-05-21T09:44:17.722Z,7.40
2018-05-21T09:45:24.446Z,8.60
2018-05-21T09:46:31.262Z,7.20
2018-05-21T09:47:38.011Z,6.80
2018-05-21T09:48:47.828Z,7.70
2018-05-21T09:49:51.671Z,6.80
2018-05-21T09:50:58.397Z,6.20
2018-05-21T09:52:05.136Z,6.90
2018-05-21T09:53:11.898Z,6.60
2018-05-21T09:54:18.710Z,7.70
2018-05-21T09:55:25.427Z,6.60
2018-05-21T09:56:32.213Z,7.10
2018-05-21T09:57:39.003Z,7.30
2018-05-21T09:58:45.762Z,6.70
2018-05-21T09:59:52.526Z,7.50
2018-05-21T10:00:59.336Z,6.70
2018-05-21T10:02:06.162Z,7.10
2018-05-21T10:03:12.895Z,7.20
2018-05-21T10:04:19.676Z,6.80
2018-05-21T10:05:26.425Z,7.30
2018-05-21T10:06:33.244Z,7.50
2018-05-21T10:07:40.023Z,7.40
2018-05-21T10:08:46.990Z,7.40
2018-05-21T10:09:53.724Z,7.90
2018-05-21T10:11:00.532Z,7.10
2018-05-21T10:12:07.495Z,7.30
2018-05-21T10:13:14.247Z,7.20
2018-05-21T10:14:21.148Z,7.00
2018-05-21T10:15:28.094Z,7.20
2018-05-21T10:16:35.074Z,8.10
2018-05-21T10:17:41.854Z,7.70
2018-05-21T10:18:48.565Z,7.30
2018-05-21T10:19:55.356Z,7.40
2018-05-21T10:21:02.168Z,6.90
2018-05-21T10:22:09.019Z,7.80
2018-05-21T10:23:16.103Z,7.60
2018-05-21T10:24:23.002Z,8.20
2018-05-21T10:25:29.790Z,7.00
2018-05-21T10:26:36.779Z,7.10
2018-05-21T10:27:43.528Z,7.70
2018-05-21T10:28:50.515Z,6.50
2018-05-21T10:29:57.246Z,8.30
2018-05-21T10:31:03.956Z,8.50
2018-05-21T10:32:10.888Z,6.80
2018-05-21T10:33:18.006Z,7.00
2018-05-21T10:34:24.773Z,7.20
2018-05-21T10:35:31.637Z,7.70
2018-05-21T10:36:38.421Z,7.90
2018-05-21T10:37:45.233Z,7.50
2018-05-21T10:38:52.178Z,7.60
2018-05-21T10:39:58.993Z,8.00
2018-05-21T10:41:05.753Z,8.10
2018-05-21T10:42:12.570Z,8.70
2018-05-21T10:43:19.698Z,8.20
2018-05-21T10:44:26.426Z,7.50
2018-05-21T10:45:33.279Z,7.70
2018-05-21T10:46:40.269Z,8.00
2018-05-21T10:47:47.070Z,7.10
2018-05-21T10:48:53.931Z,7.80
2018-05-21T10:50:00.638Z,7.50
2018-05-21T10:51:07.567Z,7.00
2018-05-21T10:52:14.430Z,6.80
2018-05-21T10:53:21.199Z,7.80
2018-05-21T10:54:28.204Z,7.50
2018-05-21T10:55:34.982Z,7.50
2018-05-21T10:56:41.859Z,6.80
2018-05-21T10:57:48.637Z,8.90
2018-05-21T10:58:55.354Z,7.60
2018-05-21T11:00:02.091Z,8.10
2018-05-21T11:01:09.106Z,7.30
2018-05-21T11:02:15.879Z,7.70
2018-05-21T11:03:22.700Z,7.20
2018-05-21T11:04:29.591Z,7.80
2018-05-21T11:05:36.452Z,7.70
2018-05-21T11:06:43.243Z,7.20
2018-05-21T11:07:50.102Z,6.90
2018-05-21T11:08:56.954Z,7.30
2018-05-21T11:10:03.694Z,7.40
2018-05-21T11:11:10.482Z,7.00
2018-05-21T11:12:17.418Z,8.50
2018-05-21T11:13:24.121Z,8.10
2018-05-21T11:14:30.891Z,7.80
2018-05-21T11:15:37.679Z,7.40
2018-05-21T11:16:44.435Z,7.50
2018-05-21T11:17:51.326Z,7.90
2018-05-21T11:18:58.123Z,7.80
2018-05-21T11:20:04.941Z,7.10
2018-05-21T11:21:11.863Z,7.40
2018-05-21T11:22:18.738Z,7.90
2018-05-21T11:23:25.486Z,8.00
2018-05-21T11:24:32.324Z,7.10
2018-05-21T11:25:39.036Z,7.00
2018-05-21T11:26:45.864Z,7.80
2018-05-21T11:27:52.665Z,7.40
2018-05-21T11:28:59.434Z,7.30
2018-05-21T11:30:06.196Z,7.70
2018-05-21T11:31:13.027Z,7.50
2018-05-21T11:32:19.782Z,7.00
2018-05-21T11:33:26.545Z,7.80
2018-05-21T11:34:33.308Z,8.30
2018-05-21T11:35:40.179Z,7.00
2018-05-21T11:36:46.935Z,7.30
2018-05-21T11:37:53.697Z,7.20
2018-05-21T11:39:00.516Z,7.30
2018-05-21T11:40:07.667Z,7.60
2018-05-21T11:41:14.443Z,7.20
2018-05-21T11:42:21.218Z,7.20
2018-05-21T11:43:28.680Z,7.40
2018-05-21T11:44:34.927Z,6.60
2018-05-21T11:45:41.689Z,6.30
2018-05-21T11:46:48.398Z,7.60
2018-05-21T11:47:55.252Z,7.10
2018-05-21T11:49:02.011Z,7.30
2018-05-21T11:50:08.740Z,7.30
2018-05-21T11:51:15.646Z,7.00
2018-05-21T11:52:22.358Z,6.90
2018-05-21T11:53:29.171Z,6.40
2018-05-21T11:54:35.882Z,7.60
2018-05-21T11:55:42.575Z,7.20
2018-05-21T11:56:49.378Z,6.70
2018-05-21T11:57:56.167Z,7.50
2018-05-21T11:59:02.890Z,7.30
2018-05-21T12:00:09.646Z,7.00
2018-05-21T12:01:16.443Z,7.00
2018-05-21T12:02:23.162Z,6.70
2018-05-21T12:03:29.958Z,7.50
2018-05-21T12:04:36.662Z,7.10
2018-05-21T12:05:43.378Z,7.60
2018-05-21T12:06:50.193Z,6.60
2018-05-21T12:07:56.934Z,7.00
2018-05-21T12:09:03.711Z,7.50
2018-05-21T12:10:10.470Z,8.20
2018-05-21T12:11:17.251Z,7.50
2018-05-21T12:12:23.990Z,7.40
2018-05-21T12:13:31.142Z,6.90
2018-05-21T12:14:37.869Z,6.20
2018-05-21T12:15:44.641Z,6.70
2018-05-21T12:16:51.370Z,7.80
2018-05-21T12:17:58.178Z,6.90
2018-05-21T12:19:04.951Z,6.60
2018-05-21T12:20:11.743Z,7.40
2018-05-21T12:21:18.429Z,7.30
2018-05-21T12:22:25.317Z,6.80
2018-05-21T12:23:32.058Z,6.80
2018-05-21T12:24:38.823Z,6.90
2018-05-21T12:25:45.677Z,7.10
2018-05-21T12:26:52.431Z,6.50
2018-05-21T12:27:59.212Z,7.90
2018-05-21T12:29:05.974Z,6.80
2018-05-21T12:30:16.237Z,7.20
2018-05-21T12:31:19.442Z,7.10
2018-05-21T12:32:27.275Z,7.30
2018-05-21T12:33:33.075Z,7.10
2018-05-21T12:34:39.877Z,6.80
2018-05-21T12:35:46.654Z,6.70
2018-05-21T12:36:53.766Z,6.80
2018-05-21T12:38:00.532Z,7.70
2018-05-21T12:39:07.267Z,7.30
2018-05-21T12:40:14.326Z,7.20
2018-05-21T12:41:21.059Z,7.20
2018-05-21T12:42:27.911Z,7.40
2018-05-21T12:43:34.950Z,7.30
2018-05-21T12:44:46.786Z,6.20
2018-05-21T12:45:53.527Z,7.10
2018-05-21T12:46:55.300Z,6.80
2018-05-21T12:48:02.162Z,7.10
2018-05-21T12:49:09.136Z,7.10
2018-05-21T12:50:15.967Z,7.00
2018-05-21T12:51:22.744Z,6.80
2018-05-21T12:52:29.486Z,7.10
2018-05-21T12:53:36.207Z,7.00
2018-05-21T12:54:43.038Z,7.30
2018-05-21T12:55:49.735Z,7.50
2018-05-21T12:56:56.438Z,7.20
2018-05-21T12:58:03.243Z,7.00
2018-05-21T12:59:10.074Z,7.10
2018-05-21T13:00:16.764Z,7.10
2018-05-21T13:01:23.491Z,6.80
2018-05-21T13:02:30.214Z,6.70
2018-05-21T13:03:36.959Z,7.00
2018-05-21T13:04:43.778Z,7.20
2018-05-21T13:05:50.514Z,7.30
2018-05-21T13:06:57.310Z,7.30
2018-05-21T13:08:04.066Z,7.00
2018-05-21T13:09:10.847Z,7.30
2018-05-21T13:10:17.595Z,6.90
2018-05-21T13:11:24.327Z,7.50
2018-05-21T13:12:31.062Z,7.40
2018-05-21T13:13:37.803Z,6.50
2018-05-21T13:14:44.687Z,7.10
2018-05-21T13:15:51.415Z,6.80
2018-05-21T13:16:58.163Z,7.70
2018-05-21T13:18:06.061Z,7.00
2018-05-21T13:19:11.858Z,7.10
2018-05-21T13:20:18.566Z,6.80
2018-05-21T13:21:25.291Z,6.80
2018-05-21T13:22:32.102Z,6.30
2018-05-21T13:23:38.862Z,6.80
2018-05-21T13:24:45.693Z,7.00
2018-05-21T13:25:52.564Z,7.20
2018-05-21T13:26:59.356Z,6.50
2018-05-21T13:28:06.175Z,6.60
2018-05-21T13:29:12.957Z,6.50
2018-05-21T13:30:19.707Z,6.80
2018-05-21T13:31:26.451Z,7.00
2018-05-21T13:32:33.434Z,6.80
2018-05-21T13:33:40.270Z,7.00
2018-05-21T13:34:47.040Z,6.80
2018-05-21T13:35:53.828Z,6.60
2018-05-21T13:37:00.571Z,6.70
2018-05-21T13:38:07.691Z,7.00
2018-05-21T13:39:14.436Z,7.40
2018-05-21T13:40:21.147Z,7.10
2018-05-21T13:41:27.895Z,6.70
2018-05-21T13:42:34.710Z,7.00
2018-05-21T13:43:41.426Z,7.60
2018-05-21T13:44:48.146Z,7.00
2018-05-21T13:45:54.846Z,7.00
2018-05-21T13:47:01.564Z,7.00
2018-05-21T13:48:08.314Z,7.20
2018-05-21T13:49:15.082Z,6.60
2018-05-21T13:50:21.816Z,7.10
2018-05-21T13:51:29.930Z,6.20
2018-05-21T13:52:35.728Z,6.30
2018-05-21T13:53:42.463Z,6.30
2018-05-21T13:54:49.178Z,7.00
2018-05-21T13:55:55.963Z,6.70
2018-05-21T13:57:02.698Z,6.90
2018-05-21T13:58:09.443Z,7.00
2018-05-21T13:59:16.234Z,7.10
2018-05-21T14:00:23.067Z,6.60
2018-05-21T14:01:29.870Z,6.80
2018-05-21T14:02:36.638Z,6.00
2018-05-21T14:03:43.524Z,5.60
2018-05-21T14:04:50.263Z,6.10
2018-05-21T14:05:57.328Z,6.10
2018-05-21T14:07:04.077Z,5.80
2018-05-21T14:08:10.840Z,6.20
2018-05-21T14:09:17.607Z,5.90
2018-05-21T14:10:24.367Z,6.30
2018-05-21T14:11:31.094Z,6.20
2018-05-21T14:12:37.953Z,5.30
2018-05-21T14:13:44.607Z,5.90
2018-05-21T14:14:51.455Z,5.80
2018-05-21T14:15:58.376Z,6.90
2018-05-21T14:17:05.109Z,7.10
2018-05-21T14:18:11.907Z,7.10
2018-05-21T14:19:19.119Z,6.90
2018-05-21T14:20:25.983Z,6.80
2018-05-21T14:21:32.825Z,6.80
2018-05-21T14:22:39.557Z,6.70
2018-05-21T14:23:46.323Z,6.90
2018-05-21T14:24:53.059Z,6.80
2018-05-21T14:25:59.851Z,7.10
2018-05-21T14:27:06.654Z,6.50
2018-05-21T14:28:13.482Z,7.50
2018-05-21T14:29:20.381Z,6.50
2018-05-21T14:30:27.113Z,7.00
2018-05-21T14:31:33.809Z,6.50
2018-05-21T14:32:40.526Z,6.60
2018-05-21T14:33:47.296Z,6.80
2018-05-21T14:34:53.985Z,7.10
2018-05-21T14:36:00.708Z,6.90
2018-05-21T14:37:07.452Z,6.50
2018-05-21T14:38:14.202Z,6.30
2018-05-21T14:39:21.155Z,5.50
2018-05-21T14:40:27.928Z,4.80
2018-05-21T14:41:34.767Z,4.90
2018-05-21T14:42:41.514Z,4.80
2018-05-21T14:43:48.266Z,4.60
2018-05-21T14:44:54.978Z,4.90
2018-05-21T14:46:01.695Z,5.00
2018-05-21T14:47:08.552Z,5.20
2018-05-21T14:48:15.396Z,4.60